sensor_id;sensor_type;location;lat;lon;timestamp;temperature;humidity
40952;DHT22;26682;51.660;19.338;2023-08-07T00:01:14;13.90;99.90
40952;DHT22;26682;51.660;19.338;2023-08-07T00:03:57;13.90;99.90
40952;DHT22;26682;51.660;19.338;2023-08-07T00:06:39;13.90;99.90
40952;DHT22;26682;51.660;19.338;2023-08-07T00:09:22;13.80;99.90
40952;DHT22;26682;51.660;19.338;2023-08-07T00:12:04;13.80;99.90
40952;DHT22;26682;51.660;19.338;2023-08-07T00:14:50;13.80;99.90
40952;DHT22;26682;51.660;19.338;2023-08-07T00:17:32;13.80;99.90
40952;DHT22;26682;51.660;19.338;2023-08-07T00:20:15;13.80;99.90
40952;DHT22;26682;51.660;19.338;2023-08-07T00:22:57;13.80;99.90
40952;DHT22;26682;51.660;19.338;2023-08-07T00:25:40;13.80;99.90
40952;DHT22;26682;51.660;19.338;2023-08-07T00:28:22;13.70;99.90
40952;DHT22;26682;51.660;19.338;2023-08-07T00:31:05;13.80;99.90
40952;DHT22;26682;51.660;19.338;2023-08-07T00:33:47;13.80;99.90
40952;DHT22;26682;51.660;19.338;2023-08-07T00:36:33;13.80;99.90
40952;DHT22;26682;51.660;19.338;2023-08-07T00:39:17;13.80;99.90
40952;DHT22;26682;51.660;19.338;2023-08-07T00:41:59;13.70;99.90
40952;DHT22;26682;51.660;19.338;2023-08-07T00:44:41;13.80;99.90
40952;DHT22;26682;51.660;19.338;2023-08-07T00:47:24;13.70;99.90
40952;DHT22;26682;51.660;19.338;2023-08-07T00:50:07;13.70;99.90
40952;DHT22;26682;51.660;19.338;2023-08-07T00:52:50;13.70;99.90
40952;DHT22;26682;51.660;19.338;2023-08-07T00:55:33;13.70;99.90
40952;DHT22;26682;51.660;19.338;2023-08-07T00:58:16;13.70;99.90
40952;DHT22;26682;51.660;19.338;2023-08-07T01:00:59;13.70;99.90
40952;DHT22;26682;51.660;19.338;2023-08-07T01:03:42;13.70;99.90
40952;DHT22;26682;51.660;19.338;2023-08-07T01:06:24;13.70;99.90
40952;DHT22;26682;51.660;19.338;2023-08-07T01:09:08;13.70;99.90
40952;DHT22;26682;51.660;19.338;2023-08-07T01:14:57;13.70;99.90
40952;DHT22;26682;51.660;19.338;2023-08-07T01:17:42;13.70;99.90
40952;DHT22;26682;51.660;19.338;2023-08-07T01:20:25;13.70;99.90
40952;DHT22;26682;51.660;19.338;2023-08-07T01:23:07;13.70;99.90
40952;DHT22;26682;51.660;19.338;2023-08-07T01:25:50;13.70;99.90
40952;DHT22;26682;51.660;19.338;2023-08-07T01:28:38;13.60;99.90
40952;DHT22;26682;51.660;19.338;2023-08-07T01:31:24;13.70;99.90
40952;DHT22;26682;51.660;19.338;2023-08-07T01:34:08;13.60;99.90
40952;DHT22;26682;51.660;19.338;2023-08-07T01:36:54;13.60;99.90
40952;DHT22;26682;51.660;19.338;2023-08-07T01:39:39;13.60;99.90
40952;DHT22;26682;51.660;19.338;2023-08-07T01:42:22;13.60;99.90
40952;DHT22;26682;51.660;19.338;2023-08-07T01:45:05;13.60;99.90
40952;DHT22;26682;51.660;19.338;2023-08-07T01:47:48;13.60;99.90
40952;DHT22;26682;51.660;19.338;2023-08-07T01:50:30;13.60;99.90
40952;DHT22;26682;51.660;19.338;2023-08-07T01:53:13;13.60;99.90
40952;DHT22;26682;51.660;19.338;2023-08-07T01:55:56;13.60;99.90
40952;DHT22;26682;51.660;19.338;2023-08-07T01:58:39;13.60;99.90
40952;DHT22;26682;51.660;19.338;2023-08-07T02:01:21;13.60;99.90
40952;DHT22;26682;51.660;19.338;2023-08-07T02:04:04;13.60;99.90
40952;DHT22;26682;51.660;19.338;2023-08-07T02:06:46;13.70;99.90
40952;DHT22;26682;51.660;19.338;2023-08-07T02:09:28;13.60;99.90
40952;DHT22;26682;51.660;19.338;2023-08-07T02:12:10;13.70;99.90
40952;DHT22;26682;51.660;19.338;2023-08-07T02:14:53;13.70;99.90
40952;DHT22;26682;51.660;19.338;2023-08-07T02:17:35;13.60;99.90
40952;DHT22;26682;51.660;19.338;2023-08-07T02:20:23;13.60;99.90
40952;DHT22;26682;51.660;19.338;2023-08-07T02:23:05;13.60;99.90
40952;DHT22;26682;51.660;19.338;2023-08-07T02:25:48;13.60;99.90
40952;DHT22;26682;51.660;19.338;2023-08-07T02:28:30;13.60;99.90
40952;DHT22;26682;51.660;19.338;2023-08-07T02:31:14;13.60;99.90
40952;DHT22;26682;51.660;19.338;2023-08-07T02:33:57;13.70;99.90
40952;DHT22;26682;51.660;19.338;2023-08-07T02:36:39;13.70;99.90
40952;DHT22;26682;51.660;19.338;2023-08-07T02:39:22;13.60;99.90
40952;DHT22;26682;51.660;19.338;2023-08-07T02:42:04;13.60;99.90
40952;DHT22;26682;51.660;19.338;2023-08-07T02:44:47;13.60;99.90
40952;DHT22;26682;51.660;19.338;2023-08-07T02:47:29;13.70;99.90
40952;DHT22;26682;51.660;19.338;2023-08-07T02:50:12;13.70;99.90
40952;DHT22;26682;51.660;19.338;2023-08-07T02:52:55;13.70;99.90
40952;DHT22;26682;51.660;19.338;2023-08-07T02:55:37;13.70;99.90
40952;DHT22;26682;51.660;19.338;2023-08-07T02:58:20;13.70;99.90
40952;DHT22;26682;51.660;19.338;2023-08-07T03:01:05;13.70;99.90
40952;DHT22;26682;51.660;19.338;2023-08-07T03:03:51;13.70;99.90
40952;DHT22;26682;51.660;19.338;2023-08-07T03:06:33;13.70;99.90
40952;DHT22;26682;51.660;19.338;2023-08-07T03:09:15;13.60;99.90
40952;DHT22;26682;51.660;19.338;2023-08-07T03:11:58;13.60;99.90
40952;DHT22;26682;51.660;19.338;2023-08-07T03:14:46;13.60;99.90
40952;DHT22;26682;51.660;19.338;2023-08-07T03:17:28;13.60;99.90
40952;DHT22;26682;51.660;19.338;2023-08-07T03:20:11;13.60;99.90
40952;DHT22;26682;51.660;19.338;2023-08-07T03:22:54;13.60;99.90
40952;DHT22;26682;51.660;19.338;2023-08-07T03:25:37;13.60;99.90
40952;DHT22;26682;51.660;19.338;2023-08-07T03:28:19;13.60;99.90
40952;DHT22;26682;51.660;19.338;2023-08-07T03:31:02;13.60;99.90
40952;DHT22;26682;51.660;19.338;2023-08-07T03:33:47;13.50;99.90
40952;DHT22;26682;51.660;19.338;2023-08-07T03:36:31;13.50;99.90
40952;DHT22;26682;51.660;19.338;2023-08-07T03:39:13;13.60;99.90
40952;DHT22;26682;51.660;19.338;2023-08-07T03:41:56;13.60;99.90
40952;DHT22;26682;51.660;19.338;2023-08-07T03:44:39;13.60;99.90
40952;DHT22;26682;51.660;19.338;2023-08-07T03:47:22;13.60;99.90
40952;DHT22;26682;51.660;19.338;2023-08-07T03:50:05;13.60;99.90
40952;DHT22;26682;51.660;19.338;2023-08-07T03:52:48;13.60;99.90
40952;DHT22;26682;51.660;19.338;2023-08-07T03:55:31;13.60;99.90
40952;DHT22;26682;51.660;19.338;2023-08-07T03:58:14;13.60;99.90
40952;DHT22;26682;51.660;19.338;2023-08-07T04:00:56;13.60;99.90
40952;DHT22;26682;51.660;19.338;2023-08-07T04:03:39;13.60;99.90
40952;DHT22;26682;51.660;19.338;2023-08-07T04:06:21;13.60;99.90
40952;DHT22;26682;51.660;19.338;2023-08-07T04:09:04;13.60;99.90
40952;DHT22;26682;51.660;19.338;2023-08-07T04:11:46;13.60;99.90
40952;DHT22;26682;51.660;19.338;2023-08-07T04:14:29;13.60;99.90
40952;DHT22;26682;51.660;19.338;2023-08-07T04:17:11;13.60;99.90
40952;DHT22;26682;51.660;19.338;2023-08-07T04:19:54;13.70;99.90
40952;DHT22;26682;51.660;19.338;2023-08-07T04:22:37;13.70;99.90
40952;DHT22;26682;51.660;19.338;2023-08-07T04:25:19;13.70;99.90
40952;DHT22;26682;51.660;19.338;2023-08-07T04:28:02;13.80;99.90
40952;DHT22;26682;51.660;19.338;2023-08-07T04:30:45;13.80;99.90
40952;DHT22;26682;51.660;19.338;2023-08-07T04:33:28;13.90;99.90
40952;DHT22;26682;51.660;19.338;2023-08-07T04:36:11;13.90;99.90
40952;DHT22;26682;51.660;19.338;2023-08-07T04:38:53;14.00;99.90
40952;DHT22;26682;51.660;19.338;2023-08-07T04:41:37;14.10;99.90
40952;DHT22;26682;51.660;19.338;2023-08-07T04:44:19;14.10;99.90
40952;DHT22;26682;51.660;19.338;2023-08-07T04:47:02;14.10;99.90
40952;DHT22;26682;51.660;19.338;2023-08-07T04:49:44;14.10;99.90
40952;DHT22;26682;51.660;19.338;2023-08-07T04:52:27;14.30;99.90
40952;DHT22;26682;51.660;19.338;2023-08-07T04:55:10;14.40;99.90
40952;DHT22;26682;51.660;19.338;2023-08-07T04:57:53;14.50;99.90
40952;DHT22;26682;51.660;19.338;2023-08-07T05:00:38;14.70;99.90
40952;DHT22;26682;51.660;19.338;2023-08-07T05:03:20;14.90;99.90
40952;DHT22;26682;51.660;19.338;2023-08-07T05:06:03;15.30;99.90
40952;DHT22;26682;51.660;19.338;2023-08-07T05:08:45;15.80;99.90
40952;DHT22;26682;51.660;19.338;2023-08-07T05:11:27;16.00;97.10
40952;DHT22;26682;51.660;19.338;2023-08-07T05:14:10;16.10;96.20
40952;DHT22;26682;51.660;19.338;2023-08-07T05:16:52;16.10;26.10
40952;DHT22;26682;51.660;19.338;2023-08-07T05:19:35;16.10;45.30
40952;DHT22;26682;51.660;19.338;2023-08-07T05:22:17;16.10;6.40
40952;DHT22;26682;51.660;19.338;2023-08-07T05:24:59;16.00;1.00
40952;DHT22;26682;51.660;19.338;2023-08-07T05:27:42;15.80;1.00
40952;DHT22;26682;51.660;19.338;2023-08-07T05:30:25;15.90;7.80
40952;DHT22;26682;51.660;19.338;2023-08-07T05:33:07;15.90;1.00
40952;DHT22;26682;51.660;19.338;2023-08-07T05:35:50;15.80;1.00
40952;DHT22;26682;51.660;19.338;2023-08-07T05:38:34;15.70;1.00
40952;DHT22;26682;51.660;19.338;2023-08-07T05:41:17;16.00;1.00
40952;DHT22;26682;51.660;19.338;2023-08-07T05:43:59;16.10;1.00
40952;DHT22;26682;51.660;19.338;2023-08-07T05:46:41;16.10;99.90
40952;DHT22;26682;51.660;19.338;2023-08-07T05:49:24;16.10;99.90
40952;DHT22;26682;51.660;19.338;2023-08-07T05:52:08;15.90;99.90
40952;DHT22;26682;51.660;19.338;2023-08-07T05:54:50;15.90;99.90
40952;DHT22;26682;51.660;19.338;2023-08-07T05:57:33;15.80;99.90
40952;DHT22;26682;51.660;19.338;2023-08-07T06:00:15;15.70;99.90
40952;DHT22;26682;51.660;19.338;2023-08-07T06:03:00;16.10;99.90
40952;DHT22;26682;51.660;19.338;2023-08-07T06:05:42;16.10;99.90
40952;DHT22;26682;51.660;19.338;2023-08-07T06:08:25;16.50;99.90
40952;DHT22;26682;51.660;19.338;2023-08-07T06:11:07;16.60;99.90
40952;DHT22;26682;51.660;19.338;2023-08-07T06:13:50;16.80;99.90
40952;DHT22;26682;51.660;19.338;2023-08-07T06:16:32;17.00;10.20
40952;DHT22;26682;51.660;19.338;2023-08-07T06:19:15;17.30;96.20
40952;DHT22;26682;51.660;19.338;2023-08-07T06:22:11;17.80;40.60
40952;DHT22;26682;51.660;19.338;2023-08-07T06:24:54;17.80;1.00
40952;DHT22;26682;51.660;19.338;2023-08-07T06:27:36;17.90;1.00
40952;DHT22;26682;51.660;19.338;2023-08-07T06:30:19;17.90;1.00
40952;DHT22;26682;51.660;19.338;2023-08-07T06:33:01;17.80;1.00
40952;DHT22;26682;51.660;19.338;2023-08-07T06:35:44;17.80;1.00
40952;DHT22;26682;51.660;19.338;2023-08-07T06:38:26;17.90;1.00
40952;DHT22;26682;51.660;19.338;2023-08-07T06:41:09;18.00;1.00
40952;DHT22;26682;51.660;19.338;2023-08-07T06:43:51;18.20;1.00
40952;DHT22;26682;51.660;19.338;2023-08-07T06:46:34;18.40;99.90
40952;DHT22;26682;51.660;19.338;2023-08-07T06:49:16;17.60;99.90
40952;DHT22;26682;51.660;19.338;2023-08-07T06:51:59;17.40;99.90
40952;DHT22;26682;51.660;19.338;2023-08-07T06:54:41;17.90;99.90
40952;DHT22;26682;51.660;19.338;2023-08-07T06:57:24;17.90;99.90
40952;DHT22;26682;51.660;19.338;2023-08-07T07:00:07;17.60;99.90
40952;DHT22;26682;51.660;19.338;2023-08-07T07:02:51;18.00;99.90
40952;DHT22;26682;51.660;19.338;2023-08-07T07:05:33;18.20;99.90
40952;DHT22;26682;51.660;19.338;2023-08-07T07:08:16;18.40;99.90
40952;DHT22;26682;51.660;19.338;2023-08-07T07:10:58;18.10;99.90
40952;DHT22;26682;51.660;19.338;2023-08-07T07:13:41;17.40;99.90
40952;DHT22;26682;51.660;19.338;2023-08-07T07:16:23;17.30;99.90
40952;DHT22;26682;51.660;19.338;2023-08-07T07:19:06;17.50;99.90
40952;DHT22;26682;51.660;19.338;2023-08-07T07:21:50;18.10;99.90
40952;DHT22;26682;51.660;19.338;2023-08-07T07:24:33;18.50;99.90
40952;DHT22;26682;51.660;19.338;2023-08-07T07:27:15;18.40;99.90
40952;DHT22;26682;51.660;19.338;2023-08-07T07:29:58;18.80;99.90
40952;DHT22;26682;51.660;19.338;2023-08-07T07:32:40;18.50;99.90
40952;DHT22;26682;51.660;19.338;2023-08-07T07:35:23;18.30;99.90
40952;DHT22;26682;51.660;19.338;2023-08-07T07:38:06;18.60;99.90
40952;DHT22;26682;51.660;19.338;2023-08-07T07:40:48;19.00;99.90
40952;DHT22;26682;51.660;19.338;2023-08-07T07:43:31;19.10;99.90
40952;DHT22;26682;51.660;19.338;2023-08-07T07:46:14;19.20;99.90
40952;DHT22;26682;51.660;19.338;2023-08-07T07:48:56;19.40;99.90
40952;DHT22;26682;51.660;19.338;2023-08-07T07:51:39;19.30;99.90
40952;DHT22;26682;51.660;19.338;2023-08-07T07:54:22;18.30;99.90
40952;DHT22;26682;51.660;19.338;2023-08-07T07:57:05;18.40;99.90
40952;DHT22;26682;51.660;19.338;2023-08-07T07:59:47;18.60;99.90
40952;DHT22;26682;51.660;19.338;2023-08-07T08:02:31;18.40;99.90
40952;DHT22;26682;51.660;19.338;2023-08-07T08:05:13;18.90;99.90
40952;DHT22;26682;51.660;19.338;2023-08-07T08:07:58;19.00;99.90
40952;DHT22;26682;51.660;19.338;2023-08-07T08:10:40;19.50;99.90
40952;DHT22;26682;51.660;19.338;2023-08-07T08:13:23;19.40;99.90
40952;DHT22;26682;51.660;19.338;2023-08-07T08:16:07;19.20;99.90
40952;DHT22;26682;51.660;19.338;2023-08-07T08:18:50;19.40;99.90
40952;DHT22;26682;51.660;19.338;2023-08-07T08:21:32;19.40;32.40
40952;DHT22;26682;51.660;19.338;2023-08-07T08:24:15;18.90;18.80
40952;DHT22;26682;51.660;19.338;2023-08-07T08:26:57;19.20;38.30
40952;DHT22;26682;51.660;19.338;2023-08-07T08:29:41;19.30;11.50
40952;DHT22;26682;51.660;19.338;2023-08-07T08:32:23;19.60;1.00
40952;DHT22;26682;51.660;19.338;2023-08-07T08:35:06;19.60;40.30
40952;DHT22;26682;51.660;19.338;2023-08-07T08:37:49;19.70;1.00
40952;DHT22;26682;51.660;19.338;2023-08-07T08:40:32;19.50;1.00
40952;DHT22;26682;51.660;19.338;2023-08-07T08:43:14;19.70;13.30
40952;DHT22;26682;51.660;19.338;2023-08-07T08:45:57;20.00;1.00
40952;DHT22;26682;51.660;19.338;2023-08-07T08:48:40;20.30;1.00
40952;DHT22;26682;51.660;19.338;2023-08-07T08:51:26;20.30;1.00
40952;DHT22;26682;51.660;19.338;2023-08-07T08:54:08;20.40;1.00
40952;DHT22;26682;51.660;19.338;2023-08-07T08:56:52;20.70;1.00
40952;DHT22;26682;51.660;19.338;2023-08-07T08:59:36;20.80;1.00
40952;DHT22;26682;51.660;19.338;2023-08-07T09:02:19;21.10;1.00
40952;DHT22;26682;51.660;19.338;2023-08-07T09:05:02;20.60;1.00
40952;DHT22;26682;51.660;19.338;2023-08-07T09:07:49;19.90;1.00
40952;DHT22;26682;51.660;19.338;2023-08-07T09:10:32;19.70;1.00
40952;DHT22;26682;51.660;19.338;2023-08-07T09:13:17;20.00;1.00
40952;DHT22;26682;51.660;19.338;2023-08-07T09:16:03;20.10;99.90
40952;DHT22;26682;51.660;19.338;2023-08-07T09:18:46;20.50;1.00
40952;DHT22;26682;51.660;19.338;2023-08-07T09:21:30;20.50;1.00
40952;DHT22;26682;51.660;19.338;2023-08-07T09:24:14;20.60;1.00
40952;DHT22;26682;51.660;19.338;2023-08-07T09:26:58;20.30;1.00
40952;DHT22;26682;51.660;19.338;2023-08-07T09:29:41;20.20;1.00
40952;DHT22;26682;51.660;19.338;2023-08-07T09:32:25;20.00;1.00
40952;DHT22;26682;51.660;19.338;2023-08-07T09:35:07;20.00;99.90
40952;DHT22;26682;51.660;19.338;2023-08-07T09:37:52;19.80;99.90
40952;DHT22;26682;51.660;19.338;2023-08-07T09:40:35;20.00;99.90
40952;DHT22;26682;51.660;19.338;2023-08-07T09:43:21;20.10;99.90
40952;DHT22;26682;51.660;19.338;2023-08-07T09:46:08;20.60;99.90
40952;DHT22;26682;51.660;19.338;2023-08-07T09:48:50;21.00;99.90
40952;DHT22;26682;51.660;19.338;2023-08-07T09:51:46;20.70;99.90
40952;DHT22;26682;51.660;19.338;2023-08-07T09:54:31;20.80;99.90
40952;DHT22;26682;51.660;19.338;2023-08-07T09:57:14;21.20;99.90
40952;DHT22;26682;51.660;19.338;2023-08-07T09:59:57;20.90;99.90
40952;DHT22;26682;51.660;19.338;2023-08-07T10:02:39;21.10;99.90
40952;DHT22;26682;51.660;19.338;2023-08-07T10:05:23;20.60;99.90
40952;DHT22;26682;51.660;19.338;2023-08-07T10:08:05;20.70;99.90
40952;DHT22;26682;51.660;19.338;2023-08-07T10:10:49;20.60;99.90
40952;DHT22;26682;51.660;19.338;2023-08-07T10:13:31;20.30;99.90
40952;DHT22;26682;51.660;19.338;2023-08-07T10:16:20;19.50;99.90
40952;DHT22;26682;51.660;19.338;2023-08-07T10:19:03;19.30;99.90
40952;DHT22;26682;51.660;19.338;2023-08-07T10:21:46;18.90;99.90
40952;DHT22;26682;51.660;19.338;2023-08-07T10:24:30;19.20;99.90
40952;DHT22;26682;51.660;19.338;2023-08-07T10:27:15;19.30;99.90
40952;DHT22;26682;51.660;19.338;2023-08-07T10:30:00;19.60;99.90
40952;DHT22;26682;51.660;19.338;2023-08-07T10:32:44;19.70;99.90
40952;DHT22;26682;51.660;19.338;2023-08-07T10:35:31;19.90;99.90
40952;DHT22;26682;51.660;19.338;2023-08-07T10:38:14;20.10;99.90
40952;DHT22;26682;51.660;19.338;2023-08-07T10:41:13;20.40;99.90
40952;DHT22;26682;51.660;19.338;2023-08-07T10:43:57;20.50;99.90
40952;DHT22;26682;51.660;19.338;2023-08-07T10:46:56;20.60;99.90
40952;DHT22;26682;51.660;19.338;2023-08-07T10:49:42;20.40;99.90
40952;DHT22;26682;51.660;19.338;2023-08-07T10:52:25;20.30;99.90
40952;DHT22;26682;51.660;19.338;2023-08-07T10:55:14;20.60;99.90
40952;DHT22;26682;51.660;19.338;2023-08-07T10:58:00;20.80;99.90
40952;DHT22;26682;51.660;19.338;2023-08-07T11:00:44;20.50;99.90
40952;DHT22;26682;51.660;19.338;2023-08-07T11:03:27;20.70;99.90
40952;DHT22;26682;51.660;19.338;2023-08-07T11:06:10;20.50;99.90
40952;DHT22;26682;51.660;19.338;2023-08-07T11:08:53;20.10;99.90
40952;DHT22;26682;51.660;19.338;2023-08-07T11:11:41;20.10;99.90
40952;DHT22;26682;51.660;19.338;2023-08-07T11:14:24;20.40;99.90
40952;DHT22;26682;51.660;19.338;2023-08-07T11:17:07;20.30;99.90
40952;DHT22;26682;51.660;19.338;2023-08-07T11:19:51;20.20;99.90
40952;DHT22;26682;51.660;19.338;2023-08-07T11:22:34;20.40;99.90
40952;DHT22;26682;51.660;19.338;2023-08-07T11:25:18;20.70;99.90
40952;DHT22;26682;51.660;19.338;2023-08-07T11:28:00;20.90;99.90
40952;DHT22;26682;51.660;19.338;2023-08-07T11:30:43;21.20;99.90
40952;DHT22;26682;51.660;19.338;2023-08-07T11:33:27;21.30;99.90
40952;DHT22;26682;51.660;19.338;2023-08-07T11:36:11;21.60;99.90
40952;DHT22;26682;51.660;19.338;2023-08-07T11:38:54;21.80;99.90
40952;DHT22;26682;51.660;19.338;2023-08-07T11:41:37;22.00;99.90
40952;DHT22;26682;51.660;19.338;2023-08-07T11:44:19;22.10;95.50
40952;DHT22;26682;51.660;19.338;2023-08-07T11:47:02;21.70;98.80
40952;DHT22;26682;51.660;19.338;2023-08-07T11:49:45;21.70;61.90
40952;DHT22;26682;51.660;19.338;2023-08-07T11:52:28;21.90;99.90
40952;DHT22;26682;51.660;19.338;2023-08-07T11:55:14;22.10;96.30
40952;DHT22;26682;51.660;19.338;2023-08-07T11:57:57;22.20;51.70
40952;DHT22;26682;51.660;19.338;2023-08-07T12:00:43;22.10;99.20
40952;DHT22;26682;51.660;19.338;2023-08-07T12:03:31;21.90;96.40
40952;DHT22;26682;51.660;19.338;2023-08-07T12:06:15;21.70;34.50
40952;DHT22;26682;51.660;19.338;2023-08-07T12:08:59;21.40;75.80
40952;DHT22;26682;51.660;19.338;2023-08-07T12:11:41;21.20;78.80
40952;DHT22;26682;51.660;19.338;2023-08-07T12:14:29;21.20;99.90
40952;DHT22;26682;51.660;19.338;2023-08-07T12:17:12;21.20;99.90
40952;DHT22;26682;51.660;19.338;2023-08-07T12:19:57;20.70;99.90
40952;DHT22;26682;51.660;19.338;2023-08-07T12:22:40;20.60;90.40
40952;DHT22;26682;51.660;19.338;2023-08-07T12:25:23;20.80;6.40
40952;DHT22;26682;51.660;19.338;2023-08-07T12:28:05;20.80;57.90
40952;DHT22;26682;51.660;19.338;2023-08-07T12:30:50;21.00;99.90
40952;DHT22;26682;51.660;19.338;2023-08-07T12:33:32;21.10;71.30
40952;DHT22;26682;51.660;19.338;2023-08-07T12:36:15;20.90;65.50
40952;DHT22;26682;51.660;19.338;2023-08-07T12:39:01;20.60;52.60
40952;DHT22;26682;51.660;19.338;2023-08-07T12:41:43;20.80;99.90
40952;DHT22;26682;51.660;19.338;2023-08-07T12:44:46;21.00;99.90
40952;DHT22;26682;51.660;19.338;2023-08-07T12:47:29;21.50;99.90
40952;DHT22;26682;51.660;19.338;2023-08-07T12:50:12;21.50;99.90
40952;DHT22;26682;51.660;19.338;2023-08-07T12:52:55;21.30;99.90
40952;DHT22;26682;51.660;19.338;2023-08-07T12:55:37;21.50;99.90
40952;DHT22;26682;51.660;19.338;2023-08-07T12:58:20;21.70;99.90
40952;DHT22;26682;51.660;19.338;2023-08-07T13:01:07;21.50;99.90
40952;DHT22;26682;51.660;19.338;2023-08-07T13:03:50;21.30;1.00
40952;DHT22;26682;51.660;19.338;2023-08-07T13:06:32;21.10;99.90
40952;DHT22;26682;51.660;19.338;2023-08-07T13:09:15;21.00;5.20
40952;DHT22;26682;51.660;19.338;2023-08-07T13:11:58;20.90;1.00
40952;DHT22;26682;51.660;19.338;2023-08-07T13:14:40;20.80;1.00
40952;DHT22;26682;51.660;19.338;2023-08-07T13:17:23;20.70;99.90
40952;DHT22;26682;51.660;19.338;2023-08-07T13:20:06;20.70;99.90
40952;DHT22;26682;51.660;19.338;2023-08-07T13:22:51;20.50;99.90
40952;DHT22;26682;51.660;19.338;2023-08-07T13:25:33;20.60;1.00
40952;DHT22;26682;51.660;19.338;2023-08-07T13:28:16;20.80;1.00
40952;DHT22;26682;51.660;19.338;2023-08-07T13:31:00;20.80;1.00
40952;DHT22;26682;51.660;19.338;2023-08-07T13:33:42;20.90;1.00
40952;DHT22;26682;51.660;19.338;2023-08-07T13:36:25;20.90;1.00
40952;DHT22;26682;51.660;19.338;2023-08-07T13:39:07;20.80;1.00
40952;DHT22;26682;51.660;19.338;2023-08-07T13:41:51;20.70;99.90
40952;DHT22;26682;51.660;19.338;2023-08-07T13:44:33;20.70;99.90
40952;DHT22;26682;51.660;19.338;2023-08-07T13:47:16;20.90;99.90
40952;DHT22;26682;51.660;19.338;2023-08-07T13:50:00;20.80;1.00
40952;DHT22;26682;51.660;19.338;2023-08-07T13:52:43;20.80;99.90
40952;DHT22;26682;51.660;19.338;2023-08-07T13:55:26;20.90;99.90
40952;DHT22;26682;51.660;19.338;2023-08-07T13:58:10;21.00;99.90
40952;DHT22;26682;51.660;19.338;2023-08-07T14:00:53;21.20;1.00
40952;DHT22;26682;51.660;19.338;2023-08-07T14:03:36;21.50;1.00
40952;DHT22;26682;51.660;19.338;2023-08-07T14:06:19;21.30;99.90
40952;DHT22;26682;51.660;19.338;2023-08-07T14:09:02;21.50;1.00
40952;DHT22;26682;51.660;19.338;2023-08-07T14:11:44;21.60;1.00
40952;DHT22;26682;51.660;19.338;2023-08-07T14:14:27;21.40;1.00
40952;DHT22;26682;51.660;19.338;2023-08-07T14:17:10;21.60;1.00
40952;DHT22;26682;51.660;19.338;2023-08-07T14:19:52;21.60;1.00
40952;DHT22;26682;51.660;19.338;2023-08-07T14:22:35;21.60;1.00
40952;DHT22;26682;51.660;19.338;2023-08-07T14:25:19;21.40;1.00
40952;DHT22;26682;51.660;19.338;2023-08-07T14:28:04;21.20;67.70
40952;DHT22;26682;51.660;19.338;2023-08-07T14:30:49;21.00;99.90
40952;DHT22;26682;51.660;19.338;2023-08-07T14:33:32;20.80;99.90
40952;DHT22;26682;51.660;19.338;2023-08-07T14:36:14;20.80;99.90
40952;DHT22;26682;51.660;19.338;2023-08-07T14:38:57;20.80;99.90
40952;DHT22;26682;51.660;19.338;2023-08-07T14:41:39;20.80;99.90
40952;DHT22;26682;51.660;19.338;2023-08-07T14:44:21;20.90;99.90
40952;DHT22;26682;51.660;19.338;2023-08-07T14:47:05;20.80;99.90
40952;DHT22;26682;51.660;19.338;2023-08-07T14:49:47;20.60;99.90
40952;DHT22;26682;51.660;19.338;2023-08-07T14:52:31;20.50;99.90
40952;DHT22;26682;51.660;19.338;2023-08-07T14:55:13;20.60;99.90
40952;DHT22;26682;51.660;19.338;2023-08-07T14:57:56;20.70;86.10
40952;DHT22;26682;51.660;19.338;2023-08-07T15:00:39;20.40;1.00
40952;DHT22;26682;51.660;19.338;2023-08-07T15:03:21;20.50;1.00
40952;DHT22;26682;51.660;19.338;2023-08-07T15:06:04;20.60;99.90
40952;DHT22;26682;51.660;19.338;2023-08-07T15:08:47;20.40;99.90
40952;DHT22;26682;51.660;19.338;2023-08-07T15:11:29;20.00;99.90
40952;DHT22;26682;51.660;19.338;2023-08-07T15:14:12;19.90;99.90
40952;DHT22;26682;51.660;19.338;2023-08-07T15:16:54;19.60;99.90
40952;DHT22;26682;51.660;19.338;2023-08-07T15:19:37;19.50;99.90
40952;DHT22;26682;51.660;19.338;2023-08-07T15:22:19;19.50;99.90
40952;DHT22;26682;51.660;19.338;2023-08-07T15:25:02;19.40;55.00
40952;DHT22;26682;51.660;19.338;2023-08-07T15:27:44;19.20;99.90
40952;DHT22;26682;51.660;19.338;2023-08-07T15:30:27;19.20;99.90
40952;DHT22;26682;51.660;19.338;2023-08-07T15:33:11;19.10;99.90
40952;DHT22;26682;51.660;19.338;2023-08-07T15:35:54;19.00;34.90
40952;DHT22;26682;51.660;19.338;2023-08-07T15:38:37;18.90;99.90
40952;DHT22;26682;51.660;19.338;2023-08-07T15:41:21;18.80;99.90
40952;DHT22;26682;51.660;19.338;2023-08-07T15:44:04;18.80;99.90
40952;DHT22;26682;51.660;19.338;2023-08-07T15:46:46;18.40;99.90
40952;DHT22;26682;51.660;19.338;2023-08-07T15:49:28;17.60;99.90
40952;DHT22;26682;51.660;19.338;2023-08-07T15:52:11;17.00;1.00
40952;DHT22;26682;51.660;19.338;2023-08-07T15:54:53;16.40;99.90
40952;DHT22;26682;51.660;19.338;2023-08-07T15:57:36;15.80;1.00
40952;DHT22;26682;51.660;19.338;2023-08-07T16:00:18;15.60;4.20
40952;DHT22;26682;51.660;19.338;2023-08-07T16:03:07;15.70;1.00
40952;DHT22;26682;51.660;19.338;2023-08-07T16:05:50;15.80;99.90
40952;DHT22;26682;51.660;19.338;2023-08-07T16:08:33;15.90;1.00
40952;DHT22;26682;51.660;19.338;2023-08-07T16:11:15;15.90;99.90
40952;DHT22;26682;51.660;19.338;2023-08-07T16:13:57;15.90;1.00
40952;DHT22;26682;51.660;19.338;2023-08-07T16:16:40;15.90;1.00
40952;DHT22;26682;51.660;19.338;2023-08-07T16:19:22;16.00;99.90
40952;DHT22;26682;51.660;19.338;2023-08-07T16:22:05;16.00;99.90
40952;DHT22;26682;51.660;19.338;2023-08-07T16:24:47;16.00;99.90
40952;DHT22;26682;51.660;19.338;2023-08-07T16:27:30;16.00;1.00
40952;DHT22;26682;51.660;19.338;2023-08-07T16:30:13;16.00;1.00
40952;DHT22;26682;51.660;19.338;2023-08-07T16:32:56;15.90;99.90
40952;DHT22;26682;51.660;19.338;2023-08-07T16:35:39;15.80;1.00
40952;DHT22;26682;51.660;19.338;2023-08-07T16:38:21;15.80;1.00
40952;DHT22;26682;51.660;19.338;2023-08-07T16:41:04;15.70;1.00
40952;DHT22;26682;51.660;19.338;2023-08-07T16:43:46;15.60;28.20
40952;DHT22;26682;51.660;19.338;2023-08-07T16:46:29;15.60;77.30
40952;DHT22;26682;51.660;19.338;2023-08-07T16:49:14;15.70;1.00
40952;DHT22;26682;51.660;19.338;2023-08-07T16:51:57;15.70;1.00
40952;DHT22;26682;51.660;19.338;2023-08-07T16:54:40;15.80;1.00
40952;DHT22;26682;51.660;19.338;2023-08-07T16:57:24;15.80;1.00
40952;DHT22;26682;51.660;19.338;2023-08-07T17:00:07;15.80;99.90
40952;DHT22;26682;51.660;19.338;2023-08-07T17:02:53;15.80;99.90